sensor_id;sensor_type;location;lat;lon;timestamp;P1;durP1;ratioP1;P2;durP2;ratioP2
14472;SDS011;7322;50.872;4.386;2023-05-10T00:02:20;2.05;;;1.70;;
14472;SDS011;7322;50.872;4.386;2023-05-10T00:04:50;2.30;;;1.60;;
14472;SDS011;7322;50.872;4.386;2023-05-10T00:07:17;2.72;;;2.20;;
14472;SDS011;7322;50.872;4.386;2023-05-10T00:09:44;2.53;;;1.88;;
14472;SDS011;7322;50.872;4.386;2023-05-10T00:12:11;2.58;;;1.95;;
14472;SDS011;7322;50.872;4.386;2023-05-10T00:14:39;1.80;;;1.65;;
14472;SDS011;7322;50.872;4.386;2023-05-10T00:17:07;3.72;;;1.75;;
14472;SDS011;7322;50.872;4.386;2023-05-10T00:19:34;3.30;;;1.92;;
14472;SDS011;7322;50.872;4.386;2023-05-10T00:22:03;1.92;;;1.75;;
14472;SDS011;7322;50.872;4.386;2023-05-10T00:24:30;3.85;;;2.00;;
14472;SDS011;7322;50.872;4.386;2023-05-10T00:26:57;1.90;;;1.58;;
14472;SDS011;7322;50.872;4.386;2023-05-10T00:29:26;2.10;;;1.90;;
14472;SDS011;7322;50.872;4.386;2023-05-10T00:31:56;1.98;;;1.70;;
14472;SDS011;7322;50.872;4.386;2023-05-10T00:34:24;3.10;;;1.67;;
14472;SDS011;7322;50.872;4.386;2023-05-10T00:36:52;1.92;;;1.75;;
14472;SDS011;7322;50.872;4.386;2023-05-10T00:39:21;1.73;;;1.63;;
14472;SDS011;7322;50.872;4.386;2023-05-10T00:41:48;1.90;;;1.63;;
14472;SDS011;7322;50.872;4.386;2023-05-10T00:44:15;2.67;;;2.15;;
14472;SDS011;7322;50.872;4.386;2023-05-10T00:46:43;2.97;;;1.63;;
14472;SDS011;7322;50.872;4.386;2023-05-10T00:49:11;3.53;;;1.80;;
14472;SDS011;7322;50.872;4.386;2023-05-10T00:51:40;2.60;;;2.00;;
14472;SDS011;7322;50.872;4.386;2023-05-10T00:54:08;2.15;;;1.90;;
14472;SDS011;7322;50.872;4.386;2023-05-10T00:56:37;2.95;;;1.90;;
14472;SDS011;7322;50.872;4.386;2023-05-10T00:59:04;3.63;;;1.53;;
14472;SDS011;7322;50.872;4.386;2023-05-10T01:01:31;2.10;;;1.80;;
14472;SDS011;7322;50.872;4.386;2023-05-10T01:03:58;3.05;;;2.10;;
14472;SDS011;7322;50.872;4.386;2023-05-10T01:06:25;2.70;;;1.90;;
14472;SDS011;7322;50.872;4.386;2023-05-10T01:08:54;3.63;;;1.85;;
14472;SDS011;7322;50.872;4.386;2023-05-10T01:11:23;2.95;;;1.85;;
14472;SDS011;7322;50.872;4.386;2023-05-10T01:13:52;2.35;;;1.70;;
14472;SDS011;7322;50.872;4.386;2023-05-10T01:16:23;2.60;;;1.80;;
14472;SDS011;7322;50.872;4.386;2023-05-10T01:18:52;4.95;;;2.15;;
14472;SDS011;7322;50.872;4.386;2023-05-10T01:21:21;4.72;;;2.17;;
14472;SDS011;7322;50.872;4.386;2023-05-10T01:27:20;2.10;;;1.83;;
14472;SDS011;7322;50.872;4.386;2023-05-10T01:30:14;3.13;;;1.92;;
14472;SDS011;7322;50.872;4.386;2023-05-10T01:32:57;3.08;;;2.10;;
14472;SDS011;7322;50.872;4.386;2023-05-10T01:35:30;2.15;;;1.80;;
14472;SDS011;7322;50.872;4.386;2023-05-10T01:38:04;3.97;;;2.05;;
14472;SDS011;7322;50.872;4.386;2023-05-10T01:40:42;2.63;;;2.10;;
14472;SDS011;7322;50.872;4.386;2023-05-10T01:43:19;2.78;;;2.33;;
14472;SDS011;7322;50.872;4.386;2023-05-10T01:45:56;2.63;;;2.30;;
14472;SDS011;7322;50.872;4.386;2023-05-10T01:48:33;2.95;;;2.10;;
14472;SDS011;7322;50.872;4.386;2023-05-10T01:51:01;2.50;;;2.30;;
14472;SDS011;7322;50.872;4.386;2023-05-10T01:53:29;2.80;;;2.00;;
14472;SDS011;7322;50.872;4.386;2023-05-10T01:55:59;2.00;;;1.80;;
14472;SDS011;7322;50.872;4.386;2023-05-10T01:58:30;2.53;;;2.00;;
14472;SDS011;7322;50.872;4.386;2023-05-10T02:01:01;3.17;;;2.38;;
14472;SDS011;7322;50.872;4.386;2023-05-10T02:03:36;3.17;;;1.98;;
14472;SDS011;7322;50.872;4.386;2023-05-10T02:06:06;3.28;;;2.20;;
14472;SDS011;7322;50.872;4.386;2023-05-10T02:08:36;2.75;;;2.00;;
14472;SDS011;7322;50.872;4.386;2023-05-10T02:13:37;3.28;;;2.42;;
14472;SDS011;7322;50.872;4.386;2023-05-10T02:16:05;3.50;;;2.55;;
14472;SDS011;7322;50.872;4.386;2023-05-10T02:18:35;3.50;;;2.13;;
14472;SDS011;7322;50.872;4.386;2023-05-10T02:21:02;2.70;;;2.25;;
14472;SDS011;7322;50.872;4.386;2023-05-10T02:23:31;2.65;;;2.00;;
14472;SDS011;7322;50.872;4.386;2023-05-10T02:25:59;4.28;;;1.83;;
14472;SDS011;7322;50.872;4.386;2023-05-10T02:28:28;2.75;;;2.40;;
14472;SDS011;7322;50.872;4.386;2023-05-10T02:30:56;2.97;;;2.25;;
14472;SDS011;7322;50.872;4.386;2023-05-10T02:33:24;2.67;;;2.38;;
14472;SDS011;7322;50.872;4.386;2023-05-10T02:35:54;2.58;;;2.33;;
14472;SDS011;7322;50.872;4.386;2023-05-10T02:38:24;3.30;;;2.85;;
14472;SDS011;7322;50.872;4.386;2023-05-10T02:40:54;4.63;;;2.30;;
14472;SDS011;7322;50.872;4.386;2023-05-10T02:43:23;2.38;;;2.15;;
14472;SDS011;7322;50.872;4.386;2023-05-10T02:45:51;2.35;;;2.05;;
14472;SDS011;7322;50.872;4.386;2023-05-10T02:48:19;3.97;;;2.20;;
14472;SDS011;7322;50.872;4.386;2023-05-10T02:50:46;2.33;;;1.93;;
14472;SDS011;7322;50.872;4.386;2023-05-10T02:53:18;3.13;;;2.50;;
14472;SDS011;7322;50.872;4.386;2023-05-10T02:55:50;4.15;;;2.30;;
14472;SDS011;7322;50.872;4.386;2023-05-10T02:58:20;3.47;;;2.17;;
14472;SDS011;7322;50.872;4.386;2023-05-10T03:00:50;2.83;;;2.38;;
14472;SDS011;7322;50.872;4.386;2023-05-10T03:03:17;3.08;;;2.70;;
14472;SDS011;7322;50.872;4.386;2023-05-10T03:05:45;3.25;;;2.28;;
14472;SDS011;7322;50.872;4.386;2023-05-10T03:08:12;2.65;;;2.45;;
14472;SDS011;7322;50.872;4.386;2023-05-10T03:10:53;3.00;;;2.50;;
14472;SDS011;7322;50.872;4.386;2023-05-10T03:13:29;3.60;;;2.28;;
14472;SDS011;7322;50.872;4.386;2023-05-10T03:16:04;3.10;;;2.50;;
14472;SDS011;7322;50.872;4.386;2023-05-10T03:18:37;3.58;;;2.40;;
14472;SDS011;7322;50.872;4.386;2023-05-10T03:21:11;4.03;;;2.67;;
14472;SDS011;7322;50.872;4.386;2023-05-10T03:23:41;2.42;;;2.22;;
14472;SDS011;7322;50.872;4.386;2023-05-10T03:26:14;4.03;;;2.30;;
14472;SDS011;7322;50.872;4.386;2023-05-10T03:28:52;3.22;;;2.58;;
14472;SDS011;7322;50.872;4.386;2023-05-10T03:31:20;2.75;;;2.45;;
14472;SDS011;7322;50.872;4.386;2023-05-10T03:33:48;2.95;;;2.30;;
14472;SDS011;7322;50.872;4.386;2023-05-10T03:36:17;3.17;;;2.60;;
14472;SDS011;7322;50.872;4.386;2023-05-10T03:38:45;3.58;;;2.70;;
14472;SDS011;7322;50.872;4.386;2023-05-10T03:41:13;4.38;;;2.88;;
14472;SDS011;7322;50.872;4.386;2023-05-10T03:43:41;4.05;;;2.70;;
14472;SDS011;7322;50.872;4.386;2023-05-10T03:46:08;2.67;;;2.42;;
14472;SDS011;7322;50.872;4.386;2023-05-10T03:48:35;2.83;;;2.47;;
14472;SDS011;7322;50.872;4.386;2023-05-10T03:51:02;3.10;;;2.47;;
14472;SDS011;7322;50.872;4.386;2023-05-10T03:53:29;3.50;;;2.75;;
14472;SDS011;7322;50.872;4.386;2023-05-10T03:55:57;3.47;;;2.63;;
14472;SDS011;7322;50.872;4.386;2023-05-10T03:58:26;3.60;;;2.92;;
14472;SDS011;7322;50.872;4.386;2023-05-10T04:00:53;3.40;;;2.72;;
14472;SDS011;7322;50.872;4.386;2023-05-10T04:03:20;4.10;;;2.78;;
14472;SDS011;7322;50.872;4.386;2023-05-10T04:05:48;4.30;;;2.92;;
14472;SDS011;7322;50.872;4.386;2023-05-10T04:08:14;3.28;;;2.90;;
14472;SDS011;7322;50.872;4.386;2023-05-10T04:10:42;3.25;;;2.42;;
14472;SDS011;7322;50.872;4.386;2023-05-10T04:13:08;4.13;;;2.87;;
14472;SDS011;7322;50.872;4.386;2023-05-10T04:15:37;4.93;;;3.10;;
14472;SDS011;7322;50.872;4.386;2023-05-10T04:18:05;2.53;;;2.33;;
14472;SDS011;7322;50.872;4.386;2023-05-10T04:20:32;3.72;;;2.80;;
14472;SDS011;7322;50.872;4.386;2023-05-10T04:22:59;3.10;;;2.80;;
14472;SDS011;7322;50.872;4.386;2023-05-10T04:25:26;3.60;;;2.85;;
14472;SDS011;7322;50.872;4.386;2023-05-10T04:27:53;4.47;;;2.65;;
14472;SDS011;7322;50.872;4.386;2023-05-10T04:30:20;3.42;;;2.80;;
14472;SDS011;7322;50.872;4.386;2023-05-10T04:32:48;2.92;;;2.50;;
14472;SDS011;7322;50.872;4.386;2023-05-10T04:35:15;3.63;;;2.70;;
14472;SDS011;7322;50.872;4.386;2023-05-10T04:37:42;3.15;;;2.55;;
14472;SDS011;7322;50.872;4.386;2023-05-10T04:40:10;4.72;;;3.03;;
14472;SDS011;7322;50.872;4.386;2023-05-10T04:42:39;4.22;;;2.95;;
14472;SDS011;7322;50.872;4.386;2023-05-10T04:45:08;3.25;;;2.55;;
14472;SDS011;7322;50.872;4.386;2023-05-10T04:47:36;3.97;;;2.70;;
14472;SDS011;7322;50.872;4.386;2023-05-10T04:50:05;2.73;;;2.53;;
14472;SDS011;7322;50.872;4.386;2023-05-10T04:52:33;3.13;;;2.83;;
14472;SDS011;7322;50.872;4.386;2023-05-10T04:55:01;2.83;;;2.42;;
14472;SDS011;7322;50.872;4.386;2023-05-10T04:57:28;4.07;;;2.87;;
14472;SDS011;7322;50.872;4.386;2023-05-10T04:59:55;4.43;;;2.87;;
14472;SDS011;7322;50.872;4.386;2023-05-10T05:02:22;4.13;;;3.00;;
14472;SDS011;7322;50.872;4.386;2023-05-10T05:04:49;3.17;;;2.60;;
14472;SDS011;7322;50.872;4.386;2023-05-10T05:07:17;3.67;;;2.60;;
14472;SDS011;7322;50.872;4.386;2023-05-10T05:09:44;3.77;;;3.00;;
14472;SDS011;7322;50.872;4.386;2023-05-10T05:12:12;3.13;;;2.75;;
14472;SDS011;7322;50.872;4.386;2023-05-10T05:14:39;3.03;;;2.55;;
14472;SDS011;7322;50.872;4.386;2023-05-10T05:17:14;4.70;;;2.65;;
14472;SDS011;7322;50.872;4.386;2023-05-10T05:19:42;4.63;;;2.90;;
14472;SDS011;7322;50.872;4.386;2023-05-10T05:22:11;6.47;;;3.08;;
14472;SDS011;7322;50.872;4.386;2023-05-10T05:24:46;8.38;;;3.60;;
14472;SDS011;7322;50.872;4.386;2023-05-10T05:27:14;6.95;;;3.08;;
14472;SDS011;7322;50.872;4.386;2023-05-10T05:29:41;7.72;;;3.20;;
14472;SDS011;7322;50.872;4.386;2023-05-10T05:32:09;9.73;;;3.50;;
14472;SDS011;7322;50.872;4.386;2023-05-10T05:34:39;9.18;;;3.08;;
14472;SDS011;7322;50.872;4.386;2023-05-10T05:40:00;6.63;;;3.33;;
14472;SDS011;7322;50.872;4.386;2023-05-10T05:42:41;6.18;;;3.30;;
14472;SDS011;7322;50.872;4.386;2023-05-10T05:45:14;5.68;;;3.90;;
14472;SDS011;7322;50.872;4.386;2023-05-10T05:47:43;8.63;;;3.88;;
14472;SDS011;7322;50.872;4.386;2023-05-10T05:50:15;7.90;;;3.90;;
14472;SDS011;7322;50.872;4.386;2023-05-10T05:52:51;5.97;;;3.45;;
14472;SDS011;7322;50.872;4.386;2023-05-10T05:55:23;3.70;;;3.10;;
14472;SDS011;7322;50.872;4.386;2023-05-10T05:57:50;6.10;;;3.58;;
14472;SDS011;7322;50.872;4.386;2023-05-10T06:00:28;6.32;;;3.20;;
14472;SDS011;7322;50.872;4.386;2023-05-10T06:03:03;6.18;;;3.40;;
14472;SDS011;7322;50.872;4.386;2023-05-10T06:05:30;5.43;;;3.10;;
14472;SDS011;7322;50.872;4.386;2023-05-10T06:07:59;5.15;;;2.97;;
14472;SDS011;7322;50.872;4.386;2023-05-10T06:10:27;5.65;;;3.00;;
14472;SDS011;7322;50.872;4.386;2023-05-10T06:12:55;7.28;;;3.10;;
14472;SDS011;7322;50.872;4.386;2023-05-10T06:15:23;5.22;;;3.15;;
14472;SDS011;7322;50.872;4.386;2023-05-10T06:18:04;6.78;;;3.30;;
14472;SDS011;7322;50.872;4.386;2023-05-10T06:20:31;5.18;;;2.83;;
14472;SDS011;7322;50.872;4.386;2023-05-10T06:23:08;5.43;;;2.80;;
14472;SDS011;7322;50.872;4.386;2023-05-10T06:25:47;5.40;;;3.08;;
14472;SDS011;7322;50.872;4.386;2023-05-10T06:28:21;6.57;;;3.10;;
14472;SDS011;7322;50.872;4.386;2023-05-10T06:33:26;6.22;;;3.22;;
14472;SDS011;7322;50.872;4.386;2023-05-10T06:36:03;6.47;;;3.17;;
14472;SDS011;7322;50.872;4.386;2023-05-10T06:38:38;5.20;;;3.10;;
14472;SDS011;7322;50.872;4.386;2023-05-10T06:41:16;4.15;;;3.00;;
14472;SDS011;7322;50.872;4.386;2023-05-10T06:43:43;4.78;;;2.90;;
14472;SDS011;7322;50.872;4.386;2023-05-10T06:46:11;3.60;;;2.65;;
14472;SDS011;7322;50.872;4.386;2023-05-10T06:48:45;4.13;;;2.88;;
14472;SDS011;7322;50.872;4.386;2023-05-10T06:51:18;4.07;;;2.70;;
14472;SDS011;7322;50.872;4.386;2023-05-10T06:53:47;3.22;;;2.42;;
14472;SDS011;7322;50.872;4.386;2023-05-10T06:56:16;3.47;;;2.50;;
14472;SDS011;7322;50.872;4.386;2023-05-10T06:58:47;4.53;;;3.00;;
14472;SDS011;7322;50.872;4.386;2023-05-10T07:01:26;4.53;;;2.75;;
14472;SDS011;7322;50.872;4.386;2023-05-10T07:06:47;4.90;;;3.00;;
14472;SDS011;7322;50.872;4.386;2023-05-10T07:09:20;5.43;;;3.08;;
14472;SDS011;7322;50.872;4.386;2023-05-10T07:11:50;4.32;;;3.30;;
14472;SDS011;7322;50.872;4.386;2023-05-10T07:14:17;5.53;;;3.13;;
14472;SDS011;7322;50.872;4.386;2023-05-10T07:16:45;5.28;;;2.92;;
14472;SDS011;7322;50.872;4.386;2023-05-10T07:19:12;5.97;;;3.08;;
14472;SDS011;7322;50.872;4.386;2023-05-10T07:21:44;6.20;;;2.80;;
14472;SDS011;7322;50.872;4.386;2023-05-10T07:24:12;5.45;;;2.90;;
14472;SDS011;7322;50.872;4.386;2023-05-10T07:26:45;4.30;;;2.83;;
14472;SDS011;7322;50.872;4.386;2023-05-10T07:29:15;6.50;;;3.47;;
14472;SDS011;7322;50.872;4.386;2023-05-10T07:31:44;4.45;;;3.47;;
14472;SDS011;7322;50.872;4.386;2023-05-10T07:34:13;4.97;;;3.75;;
14472;SDS011;7322;50.872;4.386;2023-05-10T07:36:40;4.68;;;3.28;;
14472;SDS011;7322;50.872;4.386;2023-05-10T07:39:13;5.63;;;3.35;;
14472;SDS011;7322;50.872;4.386;2023-05-10T07:41:41;3.50;;;3.20;;
14472;SDS011;7322;50.872;4.386;2023-05-10T07:44:17;6.55;;;3.75;;
14472;SDS011;7322;50.872;4.386;2023-05-10T07:46:46;4.28;;;3.17;;
14472;SDS011;7322;50.872;4.386;2023-05-10T07:49:13;6.03;;;3.72;;
14472;SDS011;7322;50.872;4.386;2023-05-10T07:51:41;4.50;;;3.75;;
14472;SDS011;7322;50.872;4.386;2023-05-10T07:54:14;6.50;;;3.90;;
14472;SDS011;7322;50.872;4.386;2023-05-10T07:56:44;6.75;;;4.05;;
14472;SDS011;7322;50.872;4.386;2023-05-10T07:59:25;6.03;;;4.10;;
14472;SDS011;7322;50.872;4.386;2023-05-10T08:01:58;6.30;;;4.35;;
14472;SDS011;7322;50.872;4.386;2023-05-10T08:04:35;9.77;;;4.20;;
14472;SDS011;7322;50.872;4.386;2023-05-10T08:07:03;5.40;;;4.38;;
14472;SDS011;7322;50.872;4.386;2023-05-10T08:09:38;7.00;;;4.80;;
14472;SDS011;7322;50.872;4.386;2023-05-10T08:12:15;6.20;;;4.32;;
14472;SDS011;7322;50.872;4.386;2023-05-10T08:14:46;7.43;;;4.45;;
14472;SDS011;7322;50.872;4.386;2023-05-10T08:17:15;5.90;;;4.60;;
14472;SDS011;7322;50.872;4.386;2023-05-10T08:19:43;8.20;;;4.78;;
14472;SDS011;7322;50.872;4.386;2023-05-10T08:22:15;7.82;;;5.20;;
14472;SDS011;7322;50.872;4.386;2023-05-10T08:24:45;6.22;;;5.00;;
14472;SDS011;7322;50.872;4.386;2023-05-10T08:27:19;6.75;;;5.00;;
14472;SDS011;7322;50.872;4.386;2023-05-10T08:30:00;6.03;;;4.70;;
14472;SDS011;7322;50.872;4.386;2023-05-10T08:32:33;7.70;;;5.20;;
14472;SDS011;7322;50.872;4.386;2023-05-10T08:38:05;6.60;;;5.47;;
14472;SDS011;7322;50.872;4.386;2023-05-10T08:40:45;6.60;;;5.30;;
14472;SDS011;7322;50.872;4.386;2023-05-10T08:43:15;6.60;;;5.57;;
14472;SDS011;7322;50.872;4.386;2023-05-10T08:45:45;7.20;;;5.45;;
14472;SDS011;7322;50.872;4.386;2023-05-10T08:53:52;6.68;;;5.63;;
14472;SDS011;7322;50.872;4.386;2023-05-10T08:56:26;6.60;;;5.65;;
14472;SDS011;7322;50.872;4.386;2023-05-10T08:58:54;6.55;;;5.30;;
14472;SDS011;7322;50.872;4.386;2023-05-10T09:01:28;7.13;;;5.75;;
14472;SDS011;7322;50.872;4.386;2023-05-10T09:04:02;6.82;;;5.75;;
14472;SDS011;7322;50.872;4.386;2023-05-10T09:06:29;6.82;;;5.50;;
14472;SDS011;7322;50.872;4.386;2023-05-10T09:08:59;6.90;;;5.85;;
14472;SDS011;7322;50.872;4.386;2023-05-10T09:11:27;7.15;;;5.63;;
14472;SDS011;7322;50.872;4.386;2023-05-10T09:13:55;6.93;;;5.78;;
14472;SDS011;7322;50.872;4.386;2023-05-10T09:16:24;6.95;;;5.43;;
14472;SDS011;7322;50.872;4.386;2023-05-10T09:18:54;10.27;;;5.63;;
14472;SDS011;7322;50.872;4.386;2023-05-10T09:21:23;6.93;;;5.93;;
14472;SDS011;7322;50.872;4.386;2023-05-10T09:24:02;7.78;;;5.68;;
14472;SDS011;7322;50.872;4.386;2023-05-10T09:26:39;6.60;;;5.05;;
14472;SDS011;7322;50.872;4.386;2023-05-10T09:29:13;6.45;;;5.35;;
14472;SDS011;7322;50.872;4.386;2023-05-10T09:31:46;8.00;;;5.78;;
14472;SDS011;7322;50.872;4.386;2023-05-10T09:34:18;7.53;;;5.72;;
14472;SDS011;7322;50.872;4.386;2023-05-10T09:37:00;7.78;;;5.53;;
14472;SDS011;7322;50.872;4.386;2023-05-10T09:39:44;8.65;;;6.03;;
14472;SDS011;7322;50.872;4.386;2023-05-10T09:42:12;6.20;;;5.55;;
14472;SDS011;7322;50.872;4.386;2023-05-10T09:44:40;6.28;;;5.32;;
14472;SDS011;7322;50.872;4.386;2023-05-10T09:47:16;6.88;;;5.32;;
14472;SDS011;7322;50.872;4.386;2023-05-10T09:49:46;6.72;;;5.32;;
14472;SDS011;7322;50.872;4.386;2023-05-10T09:52:24;6.95;;;5.78;;
14472;SDS011;7322;50.872;4.386;2023-05-10T09:54:52;8.00;;;5.70;;
14472;SDS011;7322;50.872;4.386;2023-05-10T09:57:20;6.00;;;5.30;;
14472;SDS011;7322;50.872;4.386;2023-05-10T09:59:48;8.50;;;5.88;;
14472;SDS011;7322;50.872;4.386;2023-05-10T10:02:15;6.38;;;4.80;;
14472;SDS011;7322;50.872;4.386;2023-05-10T10:04:46;6.75;;;6.00;;
14472;SDS011;7322;50.872;4.386;2023-05-10T10:07:24;8.18;;;5.80;;
14472;SDS011;7322;50.872;4.386;2023-05-10T10:09:53;7.25;;;5.78;;
14472;SDS011;7322;50.872;4.386;2023-05-10T10:12:21;7.30;;;5.20;;
14472;SDS011;7322;50.872;4.386;2023-05-10T10:14:48;8.95;;;6.00;;
14472;SDS011;7322;50.872;4.386;2023-05-10T10:17:17;8.25;;;5.47;;
14472;SDS011;7322;50.872;4.386;2023-05-10T10:19:53;6.10;;;5.15;;
14472;SDS011;7322;50.872;4.386;2023-05-10T10:22:21;7.32;;;5.25;;
14472;SDS011;7322;50.872;4.386;2023-05-10T10:24:50;7.10;;;5.10;;
14472;SDS011;7322;50.872;4.386;2023-05-10T10:27:21;7.90;;;5.65;;
14472;SDS011;7322;50.872;4.386;2023-05-10T10:29:58;5.97;;;4.93;;
14472;SDS011;7322;50.872;4.386;2023-05-10T10:32:35;5.60;;;4.60;;
14472;SDS011;7322;50.872;4.386;2023-05-10T10:35:16;6.20;;;5.38;;
14472;SDS011;7322;50.872;4.386;2023-05-10T10:37:46;6.28;;;5.38;;
14472;SDS011;7322;50.872;4.386;2023-05-10T10:40:30;8.30;;;5.00;;
14472;SDS011;7322;50.872;4.386;2023-05-10T10:48:47;5.43;;;4.60;;
14472;SDS011;7322;50.872;4.386;2023-05-10T10:51:16;7.60;;;5.05;;
14472;SDS011;7322;50.872;4.386;2023-05-10T10:53:45;5.57;;;5.03;;
14472;SDS011;7322;50.872;4.386;2023-05-10T10:56:15;5.35;;;4.85;;
14472;SDS011;7322;50.872;4.386;2023-05-10T10:58:56;5.82;;;4.78;;
14472;SDS011;7322;50.872;4.386;2023-05-10T11:01:40;5.45;;;4.60;;
14472;SDS011;7322;50.872;4.386;2023-05-10T11:04:22;5.97;;;5.20;;
14472;SDS011;7322;50.872;4.386;2023-05-10T11:06:55;7.95;;;5.43;;
14472;SDS011;7322;50.872;4.386;2023-05-10T11:09:44;5.32;;;4.82;;
14472;SDS011;7322;50.872;4.386;2023-05-10T11:12:14;5.65;;;5.05;;
14472;SDS011;7322;50.872;4.386;2023-05-10T11:14:49;6.88;;;5.55;;
14472;SDS011;7322;50.872;4.386;2023-05-10T11:17:24;7.95;;;5.10;;
14472;SDS011;7322;50.872;4.386;2023-05-10T11:22:51;5.70;;;4.88;;
14472;SDS011;7322;50.872;4.386;2023-05-10T11:25:19;5.72;;;5.13;;
14472;SDS011;7322;50.872;4.386;2023-05-10T11:27:53;5.20;;;4.70;;
14472;SDS011;7322;50.872;4.386;2023-05-10T11:30:26;7.70;;;5.43;;
14472;SDS011;7322;50.872;4.386;2023-05-10T11:32:53;6.93;;;5.07;;
14472;SDS011;7322;50.872;4.386;2023-05-10T11:38:12;6.68;;;4.85;;
14472;SDS011;7322;50.872;4.386;2023-05-10T11:40:40;7.55;;;5.03;;
14472;SDS011;7322;50.872;4.386;2023-05-10T11:43:10;5.50;;;4.88;;
14472;SDS011;7322;50.872;4.386;2023-05-10T11:45:37;6.18;;;4.85;;
14472;SDS011;7322;50.872;4.386;2023-05-10T11:48:21;5.38;;;4.88;;
14472;SDS011;7322;50.872;4.386;2023-05-10T11:50:51;5.85;;;4.82;;
14472;SDS011;7322;50.872;4.386;2023-05-10T11:53:24;5.65;;;4.70;;
14472;SDS011;7322;50.872;4.386;2023-05-10T11:55:52;5.90;;;4.97;;
14472;SDS011;7322;50.872;4.386;2023-05-10T11:58:19;5.15;;;4.55;;
14472;SDS011;7322;50.872;4.386;2023-05-10T12:03:25;5.15;;;4.38;;
14472;SDS011;7322;50.872;4.386;2023-05-10T12:05:53;6.13;;;4.63;;
14472;SDS011;7322;50.872;4.386;2023-05-10T12:08:24;5.38;;;4.25;;
14472;SDS011;7322;50.872;4.386;2023-05-10T12:10:54;5.20;;;4.70;;
14472;SDS011;7322;50.872;4.386;2023-05-10T12:13:37;6.65;;;5.00;;
14472;SDS011;7322;50.872;4.386;2023-05-10T12:16:15;6.13;;;4.40;;
14472;SDS011;7322;50.872;4.386;2023-05-10T12:18:45;5.60;;;4.28;;
14472;SDS011;7322;50.872;4.386;2023-05-10T12:21:18;6.22;;;4.78;;
14472;SDS011;7322;50.872;4.386;2023-05-10T12:23:48;5.63;;;4.72;;
14472;SDS011;7322;50.872;4.386;2023-05-10T12:26:29;7.13;;;5.10;;
14472;SDS011;7322;50.872;4.386;2023-05-10T12:29:11;5.50;;;4.53;;
14472;SDS011;7322;50.872;4.386;2023-05-10T12:34:30;6.03;;;4.80;;
14472;SDS011;7322;50.872;4.386;2023-05-10T12:36:58;4.78;;;4.22;;
14472;SDS011;7322;50.872;4.386;2023-05-10T12:39:27;6.10;;;4.22;;
14472;SDS011;7322;50.872;4.386;2023-05-10T12:42:14;6.82;;;4.45;;
14472;SDS011;7322;50.872;4.386;2023-05-10T12:44:41;5.78;;;4.57;;
14472;SDS011;7322;50.872;4.386;2023-05-10T12:47:10;5.68;;;4.40;;
14472;SDS011;7322;50.872;4.386;2023-05-10T12:49:38;5.15;;;4.40;;
14472;SDS011;7322;50.872;4.386;2023-05-10T12:52:18;5.55;;;4.15;;
14472;SDS011;7322;50.872;4.386;2023-05-10T12:54:46;5.45;;;4.82;;
14472;SDS011;7322;50.872;4.386;2023-05-10T12:57:15;5.47;;;4.40;;
14472;SDS011;7322;50.872;4.386;2023-05-10T13:02:34;4.68;;;3.97;;
14472;SDS011;7322;50.872;4.386;2023-05-10T13:11:16;6.22;;;4.30;;
14472;SDS011;7322;50.872;4.386;2023-05-10T13:13:45;4.53;;;3.90;;
14472;SDS011;7322;50.872;4.386;2023-05-10T13:16:12;5.10;;;4.22;;
14472;SDS011;7322;50.872;4.386;2023-05-10T13:18:40;5.25;;;4.07;;
14472;SDS011;7322;50.872;4.386;2023-05-10T13:21:07;4.85;;;3.65;;
14472;SDS011;7322;50.872;4.386;2023-05-10T13:23:35;4.65;;;3.95;;
14472;SDS011;7322;50.872;4.386;2023-05-10T13:26:02;7.22;;;4.28;;
14472;SDS011;7322;50.872;4.386;2023-05-10T13:33:45;7.32;;;4.90;;
14472;SDS011;7322;50.872;4.386;2023-05-10T13:39:09;9.25;;;5.07;;
14472;SDS011;7322;50.872;4.386;2023-05-10T13:44:14;7.25;;;4.72;;
14472;SDS011;7322;50.872;4.386;2023-05-10T13:46:48;7.18;;;5.07;;
14472;SDS011;7322;50.872;4.386;2023-05-10T13:49:15;9.05;;;5.20;;
14472;SDS011;7322;50.872;4.386;2023-05-10T13:51:45;9.02;;;5.15;;
14472;SDS011;7322;50.872;4.386;2023-05-10T13:54:29;8.52;;;4.82;;
14472;SDS011;7322;50.872;4.386;2023-05-10T14:05:16;6.35;;;4.60;;
14472;SDS011;7322;50.872;4.386;2023-05-10T14:07:45;6.32;;;4.80;;
14472;SDS011;7322;50.872;4.386;2023-05-10T14:10:15;5.90;;;4.80;;
14472;SDS011;7322;50.872;4.386;2023-05-10T14:12:43;7.10;;;4.70;;
14472;SDS011;7322;50.872;4.386;2023-05-10T14:15:17;7.85;;;4.50;;
14472;SDS011;7322;50.872;4.386;2023-05-10T14:17:45;6.13;;;4.40;;
14472;SDS011;7322;50.872;4.386;2023-05-10T14:22:45;6.47;;;5.00;;
14472;SDS011;7322;50.872;4.386;2023-05-10T14:30:46;7.93;;;4.95;;
14472;SDS011;7322;50.872;4.386;2023-05-10T14:33:14;9.45;;;5.03;;
14472;SDS011;7322;50.872;4.386;2023-05-10T14:35:56;8.77;;;5.00;;
14472;SDS011;7322;50.872;4.386;2023-05-10T14:38:30;6.90;;;5.15;;
14472;SDS011;7322;50.872;4.386;2023-05-10T14:43:53;6.70;;;4.93;;
14472;SDS011;7322;50.872;4.386;2023-05-10T14:46:26;8.77;;;5.10;;
14472;SDS011;7322;50.872;4.386;2023-05-10T14:51:30;7.43;;;5.63;;
14472;SDS011;7322;50.872;4.386;2023-05-10T14:54:00;6.40;;;4.88;;
14472;SDS011;7322;50.872;4.386;2023-05-10T14:56:35;9.05;;;5.20;;
14472;SDS011;7322;50.872;4.386;2023-05-10T14:59:04;5.90;;;4.82;;
14472;SDS011;7322;50.872;4.386;2023-05-10T15:01:46;7.30;;;4.88;;
14472;SDS011;7322;50.872;4.386;2023-05-10T15:04:15;6.10;;;5.05;;
14472;SDS011;7322;50.872;4.386;2023-05-10T15:06:43;6.82;;;4.88;;
14472;SDS011;7322;50.872;4.386;2023-05-10T15:09:11;6.68;;;4.70;;
14472;SDS011;7322;50.872;4.386;2023-05-10T15:11:39;8.15;;;5.00;;
14472;SDS011;7322;50.872;4.386;2023-05-10T15:14:06;8.13;;;4.35;;
14472;SDS011;7322;50.872;4.386;2023-05-10T15:16:40;6.28;;;4.47;;
14472;SDS011;7322;50.872;4.386;2023-05-10T15:19:16;6.80;;;4.05;;
14472;SDS011;7322;50.872;4.386;2023-05-10T15:21:45;5.43;;;4.28;;
14472;SDS011;7322;50.872;4.386;2023-05-10T15:24:19;5.38;;;4.15;;
14472;SDS011;7322;50.872;4.386;2023-05-10T15:26:46;6.80;;;4.43;;
14472;SDS011;7322;50.872;4.386;2023-05-10T15:29:13;5.35;;;3.70;;
14472;SDS011;7322;50.872;4.386;2023-05-10T15:31:46;5.78;;;3.95;;
14472;SDS011;7322;50.872;4.386;2023-05-10T15:34:17;5.57;;;3.90;;
14472;SDS011;7322;50.872;4.386;2023-05-10T15:36:44;4.57;;;3.78;;
14472;SDS011;7322;50.872;4.386;2023-05-10T15:39:11;5.57;;;4.05;;
14472;SDS011;7322;50.872;4.386;2023-05-10T15:41:40;5.63;;;3.90;;
14472;SDS011;7322;50.872;4.386;2023-05-10T15:52:19;4.90;;;3.85;;
14472;SDS011;7322;50.872;4.386;2023-05-10T15:54:53;4.55;;;3.65;;
14472;SDS011;7322;50.872;4.386;2023-05-10T15:57:23;4.63;;;3.72;;
14472;SDS011;7322;50.872;4.386;2023-05-10T15:59:52;5.28;;;3.53;;
14472;SDS011;7322;50.872;4.386;2023-05-10T16:02:26;4.50;;;3.58;;
14472;SDS011;7322;50.872;4.386;2023-05-10T16:04:54;4.28;;;3.42;;
14472;SDS011;7322;50.872;4.386;2023-05-10T16:07:29;7.00;;;3.90;;
14472;SDS011;7322;50.872;4.386;2023-05-10T16:10:04;4.93;;;3.70;;
14472;SDS011;7322;50.872;4.386;2023-05-10T16:12:32;5.93;;;4.00;;
14472;SDS011;7322;50.872;4.386;2023-05-10T16:15:08;4.38;;;3.80;;
14472;SDS011;7322;50.872;4.386;2023-05-10T16:17:35;4.28;;;3.72;;
14472;SDS011;7322;50.872;4.386;2023-05-10T16:20:12;5.20;;;3.83;;
14472;SDS011;7322;50.872;4.386;2023-05-10T16:22:45;5.40;;;3.75;;
14472;SDS011;7322;50.872;4.386;2023-05-10T16:27:45;5.10;;;3.63;;
14472;SDS011;7322;50.872;4.386;2023-05-10T16:30:13;4.78;;;3.53;;
14472;SDS011;7322;50.872;4.386;2023-05-10T16:32:41;3.95;;;3.47;;
14472;SDS011;7322;50.872;4.386;2023-05-10T16:35:09;6.88;;;4.25;;
14472;SDS011;7322;50.872;4.386;2023-05-10T16:37:51;4.88;;;3.67;;
14472;SDS011;7322;50.872;4.386;2023-05-10T16:40:18;5.60;;;3.92;;
14472;SDS011;7322;50.872;4.386;2023-05-10T16:42:45;5.10;;;3.60;;
14472;SDS011;7322;50.872;4.386;2023-05-10T16:45:12;6.50;;;3.88;;
14472;SDS011;7322;50.872;4.386;2023-05-10T16:47:40;4.40;;;3.53;;
14472;SDS011;7322;50.872;4.386;2023-05-10T16:50:25;7.35;;;4.05;;
14472;SDS011;7322;50.872;4.386;2023-05-10T16:52:53;5.20;;;3.95;;
14472;SDS011;7322;50.872;4.386;2023-05-10T16:55:20;4.22;;;3.72;;